Time;durP1;ratioP1;P1;durP2;ratioP2;P2;SDS_P1;SDS_P2;PMS_P1;PMS_P2;Temp;Humidity;BMP_temperature;BMP_pressure;BME280_temperature;BME280_humidity;BME280_pressure;Samples;Min_cycle;Max_cycle;Signal;HPM_P1;HPM_P2
2022/12/20 00:00:04;;;;;;;11.48;6.53;;;9.40;99.90;;;;;;6213756;23;20035;-91
2022/12/20 00:02:31;;;;;;;9.10;6.55;;;9.40;99.90;;;;;;6213827;23;20020;-91
2022/12/20 00:04:57;;;;;;;9.70;5.07;;;9.50;99.90;;;;;;6187541;23;20056;-91
2022/12/20 00:07:23;;;;;;;9.95;6.30;;;9.40;99.90;;;;;;6212369;23;20013;-93
2022/12/20 00:09:49;;;;;;;11.05;6.50;;;9.50;99.90;;;;;;6187226;23;20017;-93
2022/12/20 00:12:15;;;;;;;9.25;6.22;;;9.60;99.90;;;;;;6240423;23;20043;-93
2022/12/20 00:14:40;;;;;;;8.88;5.25;;;9.50;99.90;;;;;;6190202;23;20005;-91
2022/12/20 00:17:06;;;;;;;10.23;6.25;;;9.50;99.90;;;;;;6240470;23;20023;-93
2022/12/20 00:19:32;;;;;;;9.82;5.78;;;9.50;99.90;;;;;;6188737;23;20019;-93
2022/12/20 00:21:57;;;;;;;9.57;5.75;;;9.50;99.90;;;;;;6215121;23;20017;-90
2022/12/20 00:24:24;;;;;;;9.52;5.90;;;9.50;99.90;;;;;;6214927;23;20012;-90
2022/12/20 00:26:49;;;;;;;9.75;5.88;;;9.60;99.90;;;;;;6215047;23;20000;-91
2022/12/20 00:29:15;;;;;;;9.00;4.97;;;9.60;99.90;;;;;;6190137;23;20009;-92
2022/12/20 00:31:41;;;;;;;9.27;5.75;;;9.60;99.90;;;;;;6215721;23;20024;-89
2022/12/20 00:34:08;;;;;;;8.57;4.43;;;9.60;99.90;;;;;;6214242;23;20001;-92
2022/12/20 00:36:33;;;;;;;8.13;5.32;;;9.60;99.90;;;;;;6204985;23;20016;-92
2022/12/20 00:39:01;;;;;;;11.43;4.80;;;9.70;99.90;;;;;;6175145;23;20438;-92
2022/12/20 00:41:30;;;;;;;8.38;4.30;;;9.70;99.90;;;;;;6203157;23;20008;-92
2022/12/20 00:43:56;;;;;;;8.13;4.32;;;9.70;99.90;;;;;;6206899;23;20064;-93
2022/12/20 00:46:23;;;;;;;9.13;5.35;;;9.70;99.90;;;;;;6202336;23;20008;-91
2022/12/20 00:48:50;;;;;;;9.65;5.68;;;9.80;99.90;;;;;;6203586;23;20027;-89
2022/12/20 00:51:18;;;;;;;8.75;5.00;;;9.80;99.90;;;;;;6199711;23;20031;-89
2022/12/20 00:53:44;;;;;;;8.90;5.30;;;9.80;99.90;;;;;;6226715;23;20088;-92
2022/12/20 00:56:10;;;;;;;9.65;5.53;;;9.80;99.90;;;;;;6202840;23;20012;-91
2022/12/20 00:58:38;;;;;;;11.00;5.45;;;9.80;99.90;;;;;;6227314;23;20012;-90
2022/12/20 01:01:12;;;;;;;9.80;5.60;;;9.80;99.90;;;;;;6166272;23;20019;-91
2022/12/20 01:03:37;;;;;;;8.90;4.95;;;9.80;99.90;;;;;;6167972;23;20005;-90
2022/12/20 01:06:03;;;;;;;8.73;5.47;;;9.80;99.90;;;;;;6191830;23;20538;-92
2022/12/20 01:08:31;;;;;;;8.93;5.13;;;9.80;99.90;;;;;;6192182;23;20462;-90
2022/12/20 01:11:08;;;;;;;8.90;5.40;;;9.80;99.90;;;;;;6192051;23;20381;-91
2022/12/20 01:13:37;;;;;;;9.20;5.22;;;9.80;99.90;;;;;;6167517;23;20024;-91
2022/12/20 01:16:17;;;;;;;9.77;4.03;;;9.80;99.90;;;;;;6166611;23;20012;-91
2022/12/20 01:18:43;;;;;;;8.30;4.10;;;9.70;99.90;;;;;;6192403;23;20008;-92
2022/12/20 01:21:11;;;;;;;7.65;5.10;;;9.70;99.90;;;;;;6192100;23;20012;-90
2022/12/20 01:23:38;;;;;;;8.73;5.10;;;9.70;99.90;;;;;;6167376;23;20040;-93
2022/12/20 01:26:08;;;;;;;8.10;5.45;;;9.80;99.90;;;;;;6166903;23;20096;-91
2022/12/20 01:28:35;;;;;;;8.23;5.13;;;9.80;99.90;;;;;;6191955;23;20013;-93
2022/12/20 01:31:01;;;;;;;9.10;5.13;;;9.80;99.90;;;;;;6192060;23;20331;-92
2022/12/20 01:33:27;;;;;;;10.27;5.22;;;9.80;99.90;;;;;;6191029;23;20016;-91
2022/12/20 01:35:57;;;;;;;8.25;5.10;;;9.80;99.90;;;;;;6219098;23;20032;-92
2022/12/20 01:38:23;;;;;;;9.40;5.20;;;9.70;99.90;;;;;;6165594;23;20074;-90
2022/12/20 01:40:49;;;;;;;9.25;5.22;;;9.70;99.90;;;;;;6166571;23;20027;-92
2022/12/20 01:43:17;;;;;;;8.60;4.82;;;9.70;99.90;;;;;;6166152;23;20083;-93
2022/12/20 01:45:43;;;;;;;8.70;4.82;;;9.80;99.90;;;;;;6218636;23;20008;-93
2022/12/20 01:48:10;;;;;;;8.35;5.10;;;9.70;99.90;;;;;;6190483;23;20047;-91
2022/12/20 01:50:36;;;;;;;9.13;5.07;;;9.70;99.90;;;;;;6166471;23;20016;-93
2022/12/20 01:53:04;;;;;;;8.27;4.90;;;9.80;99.90;;;;;;6165968;23;20500;-93
2022/12/20 01:55:31;;;;;;;7.10;4.78;;;9.80;99.90;;;;;;6164911;23;20013;-93
2022/12/20 01:58:03;;;;;;;9.00;5.10;;;9.80;99.90;;;;;;6165963;23;20016;-92
2022/12/20 02:00:30;;;;;;;8.82;5.05;;;9.80;99.90;;;;;;6191637;23;20012;-90
2022/12/20 02:03:00;;;;;;;9.27;4.97;;;9.80;99.90;;;;;;6166922;23;20037;-90
2022/12/20 02:05:26;;;;;;;8.65;3.90;;;9.80;99.90;;;;;;6223717;23;20013;-92
2022/12/20 02:07:55;;;;;;;9.90;4.88;;;9.80;99.90;;;;;;6221607;23;20005;-91
2022/12/20 02:10:26;;;;;;;8.50;4.63;;;9.80;99.90;;;;;;6193208;23;20063;-91
2022/12/20 02:12:56;;;;;;;;;;;9.80;99.90;;;;;;6200946;23;20016;-92
2022/12/20 02:15:49;;;;;;;8.65;4.57;;;9.80;99.90;;;;;;6213694;23;19916;-93
2022/12/20 02:18:22;;;;;;;7.93;4.68;;;9.80;99.90;;;;;;6214852;23;20027;-92
2022/12/20 02:21:11;;;;;;;9.15;4.88;;;9.80;99.90;;;;;;6214726;23;20043;-91
2022/12/20 02:23:37;;;;;;;8.15;4.50;;;9.90;99.90;;;;;;6216130;23;20016;-92
2022/12/20 02:26:05;;;;;;;8.57;4.82;;;9.90;99.90;;;;;;6215500;23;20020;-92
2022/12/20 02:28:37;;;;;;;8.02;4.93;;;9.90;99.90;;;;;;6190832;23;20017;-92
2022/12/20 02:31:08;;;;;;;8.10;4.65;;;9.90;99.90;;;;;;6212977;23;20008;-94
2022/12/20 02:33:34;;;;;;;8.88;5.30;;;9.90;99.90;;;;;;6216327;23;20012;-93
2022/12/20 02:36:02;;;;;;;7.20;4.68;;;9.90;99.90;;;;;;6213658;23;20004;-93
2022/12/20 02:38:34;;;;;;;8.30;4.95;;;9.90;99.90;;;;;;6191213;23;20016;-92
2022/12/20 02:41:34;;;;;;;7.70;4.80;;;9.90;99.90;;;;;;6228398;23;20019;-93
2022/12/20 02:47:12;;;;;;;8.35;4.95;;;9.90;99.90;;;;;;6217859;23;20024;-92
2022/12/20 02:49:41;;;;;;;8.88;4.75;;;9.90;99.90;;;;;;6217551;23;20155;-93
2022/12/20 02:52:09;;;;;;;8.43;5.18;;;9.90;99.90;;;;;;6167597;23;20028;-92
2022/12/20 02:54:37;;;;;;;9.27;5.18;;;9.90;99.90;;;;;;6192547;23;20020;-91
2022/12/20 02:57:15;;;;;;;8.80;5.30;;;9.90;99.90;;;;;;6216713;23;20016;-91
2022/12/20 03:00:12;;;;;;;8.70;5.35;;;9.80;99.90;;;;;;6166384;23;20009;-91
2022/12/20 03:05:26;;;;;;;9.75;5.82;;;9.80;99.90;;;;;;6189771;23;20021;-91
2022/12/20 03:07:52;;;;;;;9.38;5.90;;;9.70;99.90;;;;;;6189605;23;20320;-90
2022/12/20 03:10:19;;;;;;;9.70;5.65;;;9.80;99.90;;;;;;6189480;23;20027;-91
2022/12/20 03:12:45;;;;;;;10.45;6.00;;;9.70;99.90;;;;;;6214601;23;20016;-90
2022/12/20 03:15:11;;;;;;;9.68;6.03;;;9.70;99.90;;;;;;6216208;23;20079;-90
2022/12/20 03:17:37;;;;;;;9.20;5.85;;;9.70;99.90;;;;;;6216802;23;20437;-90
2022/12/20 03:20:05;;;;;;;8.68;4.35;;;9.70;99.90;;;;;;6189819;23;20066;-90
2022/12/20 03:22:34;;;;;;;9.95;5.90;;;9.60;99.90;;;;;;6191317;23;20042;-91
2022/12/20 03:25:03;;;;;;;8.73;4.50;;;9.70;99.90;;;;;;6189337;23;20008;-90
2022/12/20 03:27:29;;;;;;;9.52;5.80;;;9.60;99.90;;;;;;6216363;23;20009;-90
2022/12/20 03:29:55;;;;;;;10.23;6.18;;;9.60;99.90;;;;;;6216082;23;20016;-91
2022/12/20 03:32:21;;;;;;;10.30;6.03;;;9.60;99.90;;;;;;6163357;23;20023;-91
2022/12/20 03:34:47;;;;;;;7.78;4.00;;;9.60;99.90;;;;;;6189252;23;20448;-90
2022/12/20 03:37:13;;;;;;;10.10;5.97;;;9.70;99.90;;;;;;6216167;23;20019;-91
2022/12/20 03:39:39;;;;;;;9.25;4.22;;;9.60;99.90;;;;;;6189047;23;20134;-90
2022/12/20 03:42:04;;;;;;;9.23;6.00;;;9.50;99.90;;;;;;6163740;23;20029;-92
2022/12/20 03:44:31;;;;;;;10.77;5.63;;;9.60;99.90;;;;;;6190101;23;20013;-90
2022/12/20 03:46:57;;;;;;;8.50;5.45;;;9.60;99.90;;;;;;6190843;23;20005;-91
2022/12/20 03:49:22;;;;;;;8.90;5.75;;;9.60;99.90;;;;;;6192210;23;20047;-92
2022/12/20 03:51:48;;;;;;;9.93;6.13;;;9.60;99.90;;;;;;6189387;23;20009;-91
2022/12/20 03:54:14;;;;;;;8.70;5.78;;;9.60;99.90;;;;;;6215051;23;20453;-91
2022/12/20 03:56:39;;;;;;;8.57;5.95;;;9.60;99.90;;;;;;6191541;23;20062;-92
2022/12/20 03:59:05;;;;;;;8.57;5.45;;;9.70;99.90;;;;;;6190528;23;20013;-91
2022/12/20 04:01:35;;;;;;;8.00;4.28;;;9.60;99.90;;;;;;6193658;23;20020;-92
2022/12/20 04:04:01;;;;;;;9.73;6.07;;;9.60;99.90;;;;;;6191768;23;20016;-91
2022/12/20 04:06:27;;;;;;;8.77;3.67;;;9.70;99.90;;;;;;6218151;23;20016;-93
2022/12/20 04:08:53;;;;;;;9.15;6.13;;;9.70;99.90;;;;;;6200633;23;20023;-92
2022/12/20 04:11:19;;;;;;;9.50;6.18;;;9.70;99.90;;;;;;6170733;23;20016;-92
2022/12/20 04:13:50;;;;;;;7.88;4.68;;;9.80;99.90;;;;;;6188881;23;20019;-91
2022/12/20 04:16:19;;;;;;;8.98;4.55;;;9.80;99.90;;;;;;6215982;23;20016;-93
2022/12/20 04:18:45;;;;;;;9.80;6.60;;;9.70;99.90;;;;;;6166874;23;20008;-93
2022/12/20 04:21:12;;;;;;;10.05;6.60;;;9.80;99.90;;;;;;6189514;23;20005;-90
2022/12/20 04:23:39;;;;;;;9.55;6.38;;;9.70;99.90;;;;;;6189269;23;20335;-92
2022/12/20 04:26:06;;;;;;;10.05;5.00;;;9.80;99.90;;;;;;6163930;23;20501;-91
2022/12/20 04:28:33;;;;;;;10.38;6.47;;;9.80;99.90;;;;;;6215798;23;20012;-91
2022/12/20 04:30:59;;;;;;;10.50;6.68;;;9.70;99.90;;;;;;6188785;23;20032;-94
2022/12/20 04:33:26;;;;;;;9.98;6.47;;;9.70;99.90;;;;;;6188795;23;20020;-94
2022/12/20 04:35:52;;;;;;;8.93;6.20;;;9.70;99.90;;;;;;6215730;23;20015;-91
2022/12/20 04:38:19;;;;;;;8.32;4.40;;;9.80;99.90;;;;;;6216050;23;20100;-92
2022/12/20 04:40:52;;;;;;;8.85;4.30;;;9.70;99.90;;;;;;6190000;23;20012;-92
2022/12/20 04:43:18;;;;;;;9.93;6.43;;;9.70;99.90;;;;;;6164019;23;20016;-92
2022/12/20 04:45:47;;;;;;;10.55;6.10;;;9.70;99.90;;;;;;6164709;23;20024;-90
2022/12/20 04:48:13;;;;;;;10.32;5.95;;;9.80;99.90;;;;;;6163874;23;20019;-91
2022/12/20 04:50:39;;;;;;;9.98;5.93;;;9.80;99.90;;;;;;6213584;23;20091;-91
2022/12/20 04:55:49;;;;;;;11.27;6.07;;;9.90;99.90;;;;;;6216641;23;20079;-90
2022/12/20 04:58:15;;;;;;;9.57;6.40;;;9.90;99.90;;;;;;6188523;23;20020;-89
2022/12/20 05:00:41;;;;;;;9.88;5.97;;;10.00;99.90;;;;;;6216418;23;20074;-91
2022/12/20 05:03:06;;;;;;;9.00;5.78;;;10.10;99.90;;;;;;6214170;23;20434;-91
2022/12/20 05:05:32;;;;;;;10.27;6.07;;;10.10;99.90;;;;;;6215686;23;20067;-92
2022/12/20 05:07:58;;;;;;;8.85;5.53;;;10.00;99.90;;;;;;6189090;23;20088;-91
2022/12/20 05:10:24;;;;;;;9.38;6.05;;;10.10;99.90;;;;;;6188826;23;20031;-92
2022/12/20 05:12:50;;;;;;;8.60;5.38;;;10.20;99.90;;;;;;6163756;23;20021;-91
2022/12/20 05:15:16;;;;;;;10.07;5.90;;;10.20;99.90;;;;;;6214050;23;20019;-96
2022/12/20 05:17:42;;;;;;;8.43;5.30;;;10.20;99.90;;;;;;6164672;23;20019;-91
2022/12/20 05:20:08;;;;;;;8.95;5.10;;;10.20;99.90;;;;;;6163121;23;20059;-92
2022/12/20 05:28:05;;;;;;;8.95;5.53;;;10.30;99.90;;;;;;6216047;23;20035;-93
2022/12/20 05:30:34;;;;;;;8.98;5.70;;;10.30;99.90;;;;;;6191198;23;20012;-91
2022/12/20 05:32:59;;;;;;;8.80;5.38;;;10.30;99.90;;;;;;6164775;23;20335;-94
2022/12/20 05:35:25;;;;;;;8.60;5.30;;;10.30;99.90;;;;;;6217834;23;20012;-95
2022/12/20 05:37:51;;;;;;;8.43;4.75;;;10.30;99.90;;;;;;6219126;23;20016;-93
2022/12/20 05:40:17;;;;;;;10.30;5.20;;;10.30;99.90;;;;;;6167780;23;20087;-90
2022/12/20 05:42:43;;;;;;;9.05;5.15;;;10.30;99.90;;;;;;6192996;23;20489;-92
2022/12/20 05:45:10;;;;;;;8.95;5.05;;;10.30;99.90;;;;;;6192224;23;20076;-91
2022/12/20 05:47:35;;;;;;;9.68;5.25;;;10.30;99.90;;;;;;6191074;23;20021;-90
2022/12/20 05:50:02;;;;;;;8.73;5.10;;;10.40;99.90;;;;;;6167878;23;20008;-94
2022/12/20 05:52:29;;;;;;;8.40;5.20;;;10.40;99.90;;;;;;6219999;23;20124;-89
2022/12/20 05:54:55;;;;;;;8.68;4.57;;;10.40;99.90;;;;;;6209552;23;20008;-93
2022/12/20 05:57:21;;;;;;;7.88;4.53;;;10.40;99.90;;;;;;6242647;23;20008;-95
2022/12/20 05:59:47;;;;;;;8.27;4.65;;;10.30;99.90;;;;;;6192333;23;20068;-94
2022/12/20 06:02:13;;;;;;;8.07;4.95;;;10.40;99.90;;;;;;6238655;23;20021;-87
2022/12/20 06:04:39;;;;;;;8.27;5.00;;;10.30;99.90;;;;;;6211551;23;20039;-88
2022/12/20 06:07:05;;;;;;;10.18;5.00;;;10.40;99.90;;;;;;6190424;23;20080;-90
2022/12/20 06:09:32;;;;;;;7.70;5.03;;;10.40;99.90;;;;;;6215866;23;20067;-93
2022/12/20 06:11:58;;;;;;;9.35;5.40;;;10.40;99.90;;;;;;6216599;23;20134;-90
2022/12/20 06:14:24;;;;;;;8.55;3.67;;;10.50;99.90;;;;;;6215644;23;20013;-92
2022/12/20 06:16:50;;;;;;;9.15;4.95;;;10.40;99.90;;;;;;6216272;23;20000;-92
2022/12/20 06:19:16;;;;;;;9.45;3.95;;;10.50;99.90;;;;;;6190387;23;20004;-91
2022/12/20 06:21:41;;;;;;;8.25;4.53;;;10.40;99.90;;;;;;6215421;23;20050;-88
2022/12/20 06:24:07;;;;;;;7.90;4.85;;;10.40;99.90;;;;;;6213741;23;20004;-87
2022/12/20 06:26:36;;;;;;;8.30;4.65;;;10.50;99.90;;;;;;6235714;23;20044;-92
2022/12/20 06:29:07;;;;;;;8.57;4.82;;;10.50;99.90;;;;;;6174825;23;20012;-89
2022/12/20 06:31:33;;;;;;;;;;;10.50;99.90;;;;;;6190812;23;20080;-90
2022/12/20 06:33:59;;;;;;;8.43;5.13;;;10.50;99.90;;;;;;6189211;23;19962;-90
2022/12/20 06:36:25;;;;;;;9.45;5.75;;;10.50;99.90;;;;;;6218043;23;20040;-91
2022/12/20 06:38:51;;;;;;;10.00;5.40;;;10.60;99.90;;;;;;6186219;23;20043;-90
2022/12/20 06:41:17;;;;;;;9.15;4.90;;;10.60;99.90;;;;;;6192173;23;20021;-90
2022/12/20 06:43:46;;;;;;;8.88;5.75;;;10.60;99.90;;;;;;6222439;23;20036;-96
2022/12/20 06:46:11;;;;;;;9.48;5.80;;;10.50;99.90;;;;;;6169153;23;20020;-92
2022/12/20 06:48:37;;;;;;;8.43;4.32;;;10.50;99.90;;;;;;6205206;23;20009;-96
2022/12/20 06:51:03;;;;;;;9.02;5.70;;;10.40;99.90;;;;;;6177826;23;20063;-94
2022/12/20 06:53:29;;;;;;;10.35;6.03;;;10.40;99.90;;;;;;6202267;23;20040;-96
2022/12/20 06:55:55;;;;;;;9.57;6.00;;;10.40;99.90;;;;;;6174182;23;20012;-92
2022/12/20 06:58:21;;;;;;;11.38;6.50;;;10.40;99.90;;;;;;6195181;23;20107;-96
2022/12/20 07:00:47;;;;;;;9.10;6.25;;;10.40;99.90;;;;;;6175010;23;20099;-94
2022/12/20 07:03:13;;;;;;;11.15;6.95;;;10.40;99.90;;;;;;6201453;23;20066;-91
2022/12/20 07:05:39;;;;;;;11.07;6.45;;;10.40;99.90;;;;;;6208380;23;20385;-93
2022/12/20 07:08:05;;;;;;;10.38;7.10;;;10.40;99.90;;;;;;6180891;23;20084;-96
2022/12/20 07:10:34;;;;;;;10.45;6.65;;;10.40;99.90;;;;;;6168009;23;20015;-95
2022/12/20 07:12:59;;;;;;;9.65;6.95;;;10.40;99.90;;;;;;6189213;23;20017;-94
2022/12/20 07:15:25;;;;;;;10.23;7.00;;;10.40;99.90;;;;;;6168937;23;20036;-94
2022/12/20 07:17:51;;;;;;;10.07;6.93;;;10.40;99.90;;;;;;6196780;23;20036;-95
2022/12/20 07:20:18;;;;;;;10.63;7.22;;;10.30;99.90;;;;;;6169411;23;20020;-94
2022/12/20 07:22:46;;;;;;;10.23;6.85;;;10.40;99.90;;;;;;6170553;23;20052;-95
2022/12/20 07:25:12;;;;;;;10.60;7.05;;;10.40;99.90;;;;;;6201030;23;20013;-92
2022/12/20 07:27:38;;;;;;;11.45;6.60;;;10.40;99.90;;;;;;6170937;23;20070;-93
2022/12/20 07:30:04;;;;;;;9.52;6.65;;;10.40;99.90;;;;;;6196949;23;20059;-93
2022/12/20 07:32:30;;;;;;;11.30;6.90;;;10.40;99.90;;;;;;6193461;23;20354;-96
2022/12/20 07:34:56;;;;;;;9.73;6.70;;;10.50;99.90;;;;;;6177664;23;20021;-96
2022/12/20 07:37:28;;;;;;;10.45;7.30;;;10.40;99.90;;;;;;6195756;23;20020;-95
2022/12/20 07:39:54;;;;;;;10.13;6.80;;;10.50;99.90;;;;;;6178144;22;20044;-95
2022/12/20 07:42:23;;;;;;;9.57;6.80;;;10.50;99.90;;;;;;6177049;23;20031;-96
2022/12/20 07:44:49;;;;;;;10.57;7.05;;;10.50;99.90;;;;;;6197090;23;20009;-91
2022/12/20 07:47:15;;;;;;;10.05;7.10;;;10.50;99.90;;;;;;6201796;23;20476;-91
2022/12/20 07:49:40;;;;;;;11.32;7.28;;;10.50;99.90;;;;;;6163451;23;20096;-89
2022/12/20 07:52:09;;;;;;;10.18;7.00;;;10.50;99.90;;;;;;6187294;23;20381;-87
2022/12/20 07:54:39;;;;;;;10.50;6.85;;;10.50;99.90;;;;;;6187817;23;20028;-89
2022/12/20 07:57:11;;;;;;;9.82;6.88;;;10.50;99.90;;;;;;6212622;23;20103;-88
2022/12/20 07:59:43;;;;;;;11.25;6.72;;;10.50;99.90;;;;;;6187668;23;20017;-89
2022/12/20 08:02:14;;;;;;;9.43;6.32;;;10.50;99.90;;;;;;6213545;23;20052;-89
2022/12/20 08:04:40;;;;;;;9.65;6.28;;;10.40;99.90;;;;;;6213826;23;20079;-89
2022/12/20 08:07:07;;;;;;;9.60;6.20;;;10.40;99.90;;;;;;6186942;23;20376;-88
2022/12/20 08:09:39;;;;;;;11.45;6.60;;;10.50;99.90;;;;;;6215022;23;20028;-88
2022/12/20 08:12:07;;;;;;;9.23;6.10;;;10.50;99.90;;;;;;6212549;23;20025;-89
2022/12/20 08:14:33;;;;;;;9.77;6.20;;;10.50;99.90;;;;;;6187606;23;20013;-88
2022/12/20 08:16:59;;;;;;;9.70;5.90;;;10.50;99.90;;;;;;6187651;23;20082;-88
2022/12/20 08:19:25;;;;;;;10.20;5.50;;;10.60;99.90;;;;;;6187384;23;20381;-86
2022/12/20 08:21:51;;;;;;;9.32;5.32;;;10.60;99.90;;;;;;6187657;23;20381;-88
2022/12/20 08:24:16;;;;;;;8.82;5.53;;;10.60;99.90;;;;;;6187870;23;20012;-88
2022/12/20 08:26:42;;;;;;;10.07;5.80;;;10.60;99.90;;;;;;6188084;23;20437;-86
2022/12/20 08:29:08;;;;;;;9.40;5.50;;;10.60;99.90;;;;;;6185826;23;20468;-88
2022/12/20 08:31:41;;;;;;;11.73;5.90;;;10.60;99.90;;;;;;6187506;23;20024;-87
2022/12/20 08:34:07;;;;;;;10.05;5.55;;;10.60;99.90;;;;;;6165320;23;20013;-95
2022/12/20 08:36:33;;;;;;;8.57;5.63;;;10.60;99.90;;;;;;6190348;23;20017;-90
2022/12/20 08:39:05;;;;;;;9.48;5.57;;;10.60;99.90;;;;;;6214201;23;20500;-89
2022/12/20 08:41:34;;;;;;;8.85;5.50;;;10.60;99.90;;;;;;6215540;23;20013;-90
2022/12/20 08:43:59;;;;;;;9.13;5.75;;;10.60;99.90;;;;;;6164378;23;20017;-93
2022/12/20 08:46:25;;;;;;;9.50;5.28;;;10.50;99.90;;;;;;6159034;23;20491;-94
2022/12/20 08:48:51;;;;;;;7.78;5.28;;;10.60;99.90;;;;;;6160331;23;20136;-86
2022/12/20 08:51:17;;;;;;;7.97;5.10;;;10.60;99.90;;;;;;6185264;23;20377;-87
2022/12/20 08:53:42;;;;;;;9.45;5.60;;;10.60;99.90;;;;;;6185268;23;20013;-85
2022/12/20 08:56:13;;;;;;;8.60;5.15;;;10.60;99.90;;;;;;6212562;23;20075;-85
2022/12/20 08:58:41;;;;;;;9.75;5.43;;;10.50;99.90;;;;;;6212008;23;20206;-86
2022/12/20 09:01:10;;;;;;;8.88;5.43;;;10.50;99.90;;;;;;6182870;23;20157;-86
2022/12/20 09:03:37;;;;;;;8.70;5.03;;;10.50;99.90;;;;;;6183090;23;20012;-85
2022/12/20 09:06:08;;;;;;;8.13;5.20;;;10.60;99.90;;;;;;6184263;23;20159;-83
2022/12/20 09:08:38;;;;;;;8.10;5.10;;;10.60;99.90;;;;;;6186049;23;20008;-84
2022/12/20 09:11:10;;;;;;;7.75;4.57;;;10.60;99.90;;;;;;6211126;23;20020;-85
2022/12/20 09:13:36;;;;;;;9.07;5.13;;;10.60;99.90;;;;;;6212786;23;20139;-87
2022/12/20 09:16:05;;;;;;;9.60;5.00;;;10.60;99.90;;;;;;6213648;23;20020;-85
2022/12/20 09:18:32;;;;;;;9.13;5.10;;;10.60;99.90;;;;;;6216700;23;20031;-85
2022/12/20 09:21:03;;;;;;;8.52;5.07;;;10.60;99.90;;;;;;6187528;23;20013;-84
2022/12/20 09:23:30;;;;;;;8.70;5.05;;;10.70;99.90;;;;;;6190235;23;20051;-83
2022/12/20 09:26:02;;;;;;;8.02;4.65;;;10.60;99.90;;;;;;6164336;23;20387;-91
2022/12/20 09:28:29;;;;;;;9.68;5.05;;;10.70;99.90;;;;;;6201370;23;20008;-87
2022/12/20 09:30:59;;;;;;;9.60;5.07;;;10.60;99.90;;;;;;6212560;23;20032;-87
2022/12/20 09:33:25;;;;;;;9.30;5.05;;;10.60;99.90;;;;;;6211968;23;20013;-90
2022/12/20 09:35:51;;;;;;;8.23;4.97;;;10.70;99.90;;;;;;6212063;23;20009;-88
2022/12/20 09:38:16;;;;;;;8.30;4.75;;;10.60;99.90;;;;;;6233041;23;20017;-87
2022/12/20 09:41:06;;;;;;;8.60;4.88;;;10.60;99.90;;;;;;6193316;23;20024;-86
2022/12/20 09:43:33;;;;;;;9.13;4.80;;;10.70;99.90;;;;;;6175531;23;20017;-90
2022/12/20 09:46:01;;;;;;;9.07;4.78;;;10.70;99.90;;;;;;6187926;23;20083;-89
2022/12/20 09:48:36;;;;;;;8.55;4.75;;;10.70;99.90;;;;;;6186688;23;20071;-87
2022/12/20 09:51:39;;;;;;;8.05;4.95;;;10.70;99.90;;;;;;6212135;23;20013;-87
2022/12/20 09:54:17;;;;;;;9.20;4.88;;;10.70;99.90;;;;;;6188022;23;20032;-89
2022/12/20 09:56:54;;;;;;;9.50;4.80;;;10.60;99.90;;;;;;6161820;23;20481;-90
2022/12/20 09:59:20;;;;;;;9.23;4.57;;;10.70;99.90;;;;;;6188084;23;20035;-88
2022/12/20 10:01:49;;;;;;;8.60;5.07;;;10.60;99.90;;;;;;6162659;23;20039;-89
2022/12/20 10:04:25;;;;;;;8.55;4.95;;;10.60;99.90;;;;;;6187518;23;20865;-88
2022/12/20 10:07:10;;;;;;;8.57;4.72;;;10.60;99.90;;;;;;6188063;23;20087;-92
2022/12/20 10:09:54;;;;;;;8.40;4.47;;;10.60;99.90;;;;;;6190262;23;20382;-89
2022/12/20 10:12:41;;;;;;;10.15;5.10;;;10.60;99.90;;;;;;6168803;23;20616;-91
2022/12/20 10:15:16;;;;;;;9.13;5.10;;;10.60;99.90;;;;;;6217495;23;20021;-92
2022/12/20 10:18:01;;;;;;;9.43;4.97;;;10.50;99.90;;;;;;6187010;23;20020;-84
2022/12/20 10:20:42;;;;;;;8.55;4.95;;;10.50;99.90;;;;;;6185696;23;20040;-90
2022/12/20 10:23:27;;;;;;;8.30;5.10;;;10.50;99.90;;;;;;6212802;23;20043;-88
2022/12/20 10:25:55;;;;;;;8.70;5.10;;;10.40;99.90;;;;;;6213709;23;20016;-90
2022/12/20 10:28:28;;;;;;;8.88;5.32;;;10.40;99.90;;;;;;6163654;23;20027;-87
2022/12/20 10:30:58;;;;;;;10.40;5.60;;;10.40;99.90;;;;;;6188633;23;20515;-89
2022/12/20 10:33:26;;;;;;;10.05;5.68;;;10.40;99.90;;;;;;6219548;23;20099;-88
2022/12/20 10:35:52;;;;;;;9.43;5.38;;;10.40;99.90;;;;;;6170125;23;20048;-90
2022/12/20 10:38:19;;;;;;;9.18;5.35;;;10.40;99.90;;;;;;6185586;23;20024;-89
2022/12/20 10:41:00;;;;;;;9.82;5.93;;;10.40;99.90;;;;;;6186230;23;20024;-88
2022/12/20 10:43:35;;;;;;;9.98;5.90;;;10.40;99.90;;;;;;6186229;23;20025;-88
2022/12/20 10:46:05;;;;;;;8.00;3.97;;;10.40;99.90;;;;;;6213161;23;20649;-89
2022/12/20 10:48:33;;;;;;;10.57;5.85;;;10.30;99.90;;;;;;6213299;23;20008;-89
2022/12/20 10:51:03;;;;;;;9.80;6.10;;;10.40;99.90;;;;;;6187321;23;20024;-88
2022/12/20 10:53:33;;;;;;;10.73;5.30;;;10.40;99.90;;;;;;6187310;23;20013;-87
2022/12/20 10:56:19;;;;;;;9.75;5.60;;;10.40;99.90;;;;;;6214015;23;20448;-90
2022/12/20 10:59:03;;;;;;;8.77;5.90;;;10.40;99.90;;;;;;6186924;23;20064;-90
2022/12/20 11:01:32;;;;;;;10.00;5.78;;;10.40;99.90;;;;;;6186532;23;20097;-90
2022/12/20 11:04:30;;;;;;;9.98;6.10;;;10.40;99.90;;;;;;6187858;23;20194;-86
2022/12/20 11:06:57;;;;;;;9.25;6.40;;;10.50;99.90;;;;;;6161302;23;20013;-85
2022/12/20 11:09:30;;;;;;;11.48;6.63;;;10.50;99.90;;;;;;6213754;23;20012;-87
2022/12/20 11:12:06;;;;;;;10.27;6.30;;;10.50;99.90;;;;;;6186068;23;20059;-85
2022/12/20 11:14:35;;;;;;;10.02;6.28;;;10.50;99.90;;;;;;6212914;23;20017;-86
2022/12/20 11:17:13;;;;;;;11.23;6.50;;;10.50;99.90;;;;;;6187197;23;20013;-86
2022/12/20 11:19:57;;;;;;;10.57;5.82;;;10.50;99.90;;;;;;6188067;23;20015;-85
2022/12/20 11:22:43;;;;;;;9.90;5.70;;;10.50;99.90;;;;;;6213398;23;20017;-84
2022/12/20 11:25:21;;;;;;;11.30;6.63;;;10.50;99.90;;;;;;6213091;23;20430;-85
2022/12/20 11:27:59;;;;;;;10.20;5.65;;;10.50;99.90;;;;;;6187686;23;20364;-83
2022/12/20 11:30:41;;;;;;;11.98;6.78;;;10.50;99.90;;;;;;6187090;23;20152;-86
2022/12/20 11:33:22;;;;;;;9.25;6.18;;;10.50;99.90;;;;;;6211386;23;20012;-84
2022/12/20 11:36:01;;;;;;;8.52;5.80;;;10.50;99.90;;;;;;6187209;23;20350;-84
2022/12/20 11:38:48;;;;;;;10.32;6.30;;;10.60;99.90;;;;;;6214154;23;20022;-86
2022/12/20 11:41:20;;;;;;;9.27;6.07;;;10.60;99.90;;;;;;6214577;23;20095;-86
2022/12/20 11:44:20;;;;;;;9.20;6.53;;;10.60;99.90;;;;;;6187290;23;20040;-85
2022/12/20 11:47:23;;;;;;;9.13;4.75;;;10.60;99.90;;;;;;6187997;23;20091;-86
2022/12/20 11:50:26;;;;;;;9.07;6.38;;;10.50;99.90;;;;;;6185566;23;20027;-87
2022/12/20 11:53:21;;;;;;;10.07;5.95;;;10.60;99.90;;;;;;6185224;23;20039;-86
2022/12/20 11:55:52;;;;;;;10.07;6.35;;;10.60;99.90;;;;;;6191479;23;20522;-85
2022/12/20 11:58:26;;;;;;;9.77;6.03;;;10.60;99.90;;;;;;6228354;23;20333;-87
2022/12/20 12:00:59;;;;;;;9.68;5.97;;;10.60;99.90;;;;;;6176775;23;20020;-84
2022/12/20 12:03:38;;;;;;;9.25;6.20;;;10.60;99.90;;;;;;6197516;23;20021;-86
2022/12/20 12:06:18;;;;;;;9.25;6.38;;;10.60;99.90;;;;;;6176712;23;20096;-85
2022/12/20 12:08:49;;;;;;;9.88;6.28;;;10.60;99.90;;;;;;6205893;23;20016;-90
2022/12/20 12:11:30;;;;;;;9.20;5.90;;;10.60;99.90;;;;;;6208802;23;20048;-87
2022/12/20 12:13:58;;;;;;;9.93;6.57;;;10.50;99.90;;;;;;6211000;23;20024;-88
2022/12/20 12:16:38;;;;;;;8.95;4.10;;;10.50;99.90;;;;;;6211320;23;20068;-84
2022/12/20 12:19:09;;;;;;;8.70;6.05;;;10.50;99.90;;;;;;6206154;23;20406;-84
2022/12/20 12:22:02;;;;;;;9.10;6.05;;;10.50;99.90;;;;;;6210258;23;20036;-85
2022/12/20 12:24:37;;;;;;;9.90;5.97;;;10.50;99.90;;;;;;6212626;23;20017;-86
2022/12/20 12:27:04;;;;;;;9.63;6.32;;;10.50;99.90;;;;;;6235234;23;20004;-89
2022/12/20 12:29:33;;;;;;;9.73;6.55;;;10.50;99.90;;;;;;6211876;23;20017;-90
2022/12/20 12:32:16;;;;;;;10.07;6.50;;;10.60;99.90;;;;;;6195093;23;20012;-89
2022/12/20 12:35:14;;;;;;;10.73;7.40;;;10.50;99.90;;;;;;6195297;23;20012;-87
2022/12/20 12:38:05;;;;;;;10.55;6.63;;;10.60;99.90;;;;;;6195893;23;20027;-87
2022/12/20 12:40:43;;;;;;;9.82;6.85;;;10.50;99.90;;;;;;6194833;23;20013;-88
2022/12/20 12:43:39;;;;;;;10.55;7.05;;;10.50;99.90;;;;;;6221056;23;20020;-88
2022/12/20 12:46:39;;;;;;;11.30;7.15;;;10.50;99.90;;;;;;6217607;23;20096;-88
2022/12/20 12:49:08;;;;;;;9.95;7.40;;;10.50;99.90;;;;;;6182272;23;20024;-88
2022/12/20 12:51:38;;;;;;;10.15;6.95;;;10.50;99.90;;;;;;6215315;23;20096;-89
2022/12/20 12:54:34;;;;;;;9.98;7.75;;;10.60;99.90;;;;;;6164755;23;20027;-90
2022/12/20 12:57:05;;;;;;;10.90;8.13;;;10.60;99.90;;;;;;6188327;23;20019;-86
2022/12/20 12:59:31;;;;;;;;;;;10.50;99.90;;;;;;6165168;23;20043;-84
2022/12/20 13:02:03;;;;;;;11.07;7.68;;;10.50;99.90;;;;;;6188203;23;19912;-84
2022/12/20 13:05:09;;;;;;;10.15;7.93;;;10.50;99.90;;;;;;6188218;23;20020;-84
2022/12/20 13:07:35;;;;;;;12.25;8.95;;;10.60;99.90;;;;;;6215862;23;20016;-87
2022/12/20 13:10:19;;;;;;;12.45;8.90;;;10.50;99.90;;;;;;6189104;23;20019;-87
2022/12/20 13:12:50;;;;;;;12.68;9.27;;;10.60;99.90;;;;;;6215784;23;20023;-87
2022/12/20 13:15:19;;;;;;;12.30;9.23;;;10.50;99.90;;;;;;6214671;23;20096;-86
2022/12/20 13:17:51;;;;;;;13.00;9.20;;;10.50;99.90;;;;;;6188434;23;20048;-86